createdAt,value
2018-02-01T00:02:17.859Z,1.60
2018-02-01T00:04:45.542Z,1.87
2018-02-01T00:07:13.993Z,1.57
2018-02-01T00:09:42.560Z,1.20
2018-02-01T00:12:13.921Z,1.20
2018-02-01T00:14:41.765Z,0.93
2018-02-01T00:17:09.470Z,0.87
2018-02-01T00:19:38.017Z,1.00
2018-02-01T00:22:06.199Z,0.93
2018-02-01T00:24:33.881Z,1.10
2018-02-01T00:27:02.420Z,0.90
2018-02-01T00:29:30.147Z,1.10
2018-02-01T00:31:57.981Z,1.03
2018-02-01T00:34:25.633Z,1.17
2018-02-01T00:36:53.315Z,1.10
2018-02-01T00:39:21.780Z,1.10
2018-02-01T00:41:50.153Z,1.30
2018-02-01T00:44:18.307Z,1.50
2018-02-01T00:46:46.024Z,1.00
2018-02-01T00:49:13.760Z,1.27
2018-02-01T00:51:42.173Z,1.37
2018-02-01T00:54:10.437Z,1.30
2018-02-01T00:56:38.883Z,1.47
2018-02-01T00:59:06.620Z,1.10
2018-02-01T01:01:34.310Z,1.20
2018-02-01T01:04:02.352Z,0.67
2018-02-01T01:06:30.017Z,0.87
2018-02-01T01:08:57.775Z,1.33
2018-02-01T01:11:25.474Z,0.87
2018-02-01T01:13:54.610Z,0.90
2018-02-01T01:16:22.844Z,1.20
2018-02-01T01:18:50.469Z,0.80
2018-02-01T01:21:18.447Z,1.90
2018-02-01T01:23:46.095Z,1.20
2018-02-01T01:26:13.861Z,1.10
2018-02-01T01:28:41.728Z,0.97
2018-02-01T01:31:09.489Z,0.73
2018-02-01T01:33:37.256Z,0.90
2018-02-01T01:36:05.122Z,1.13
2018-02-01T01:38:32.988Z,1.07
2018-02-01T01:41:00.695Z,0.87
2018-02-01T01:43:29.833Z,0.90
2018-02-01T01:46:09.462Z,1.10
2018-02-01T01:48:37.864Z,1.10
2018-02-01T01:51:05.482Z,0.80
2018-02-01T01:53:34.210Z,0.77
2018-02-01T01:56:02.005Z,0.90
2018-02-01T01:58:29.618Z,1.00
2018-02-01T02:00:57.335Z,1.07
2018-02-01T02:03:24.981Z,1.23
2018-02-01T02:05:52.718Z,0.90
2018-02-01T02:08:20.481Z,1.20
2018-02-01T02:10:48.909Z,1.00
2018-02-01T02:13:17.442Z,1.60
2018-02-01T02:15:45.104Z,1.33
2018-02-01T02:18:12.785Z,1.20
2018-02-01T02:20:40.420Z,1.17
2018-02-01T02:23:08.057Z,1.20
2018-02-01T02:25:35.701Z,1.00
2018-02-01T02:28:04.127Z,1.33
2018-02-01T02:30:31.889Z,1.17
2018-02-01T02:32:59.754Z,0.90
2018-02-01T02:35:27.520Z,1.43
2018-02-01T02:37:55.283Z,1.30
2018-02-01T02:40:23.148Z,1.20
2018-02-01T02:42:50.911Z,1.40
2018-02-01T02:45:18.904Z,1.37
2018-02-01T02:47:46.743Z,1.60
2018-02-01T02:50:14.412Z,1.53
2018-02-01T02:52:42.174Z,1.23
2018-02-01T02:55:10.679Z,1.30
2018-02-01T02:57:38.414Z,1.40
2018-02-01T03:00:06.182Z,1.40
2018-02-01T03:02:33.820Z,1.47
2018-02-01T03:05:01.617Z,1.47
2018-02-01T03:07:29.292Z,1.40
2018-02-01T03:09:57.844Z,1.67
2018-02-01T03:12:25.607Z,1.50
2018-02-01T03:29:09.231Z,1.60
2018-02-01T03:31:36.897Z,1.80
2018-02-01T03:34:04.529Z,2.17
2018-02-01T03:36:32.185Z,2.23
2018-02-01T03:39:00.036Z,2.00
2018-02-01T03:41:27.848Z,2.47
2018-02-01T03:43:55.612Z,2.40
2018-02-01T03:46:23.561Z,2.67
2018-02-01T03:48:51.347Z,2.23
2018-02-01T03:51:18.977Z,3.13
2018-02-01T03:53:46.768Z,3.27
2018-02-01T03:56:14.534Z,2.70
2018-02-01T03:58:42.398Z,2.57
2018-02-01T04:01:10.273Z,2.73
2018-02-01T04:03:39.557Z,2.80
2018-02-01T04:06:07.218Z,3.10
2018-02-01T04:08:34.984Z,2.83
2018-02-01T04:11:02.666Z,2.90
2018-02-01T04:13:30.509Z,3.03
2018-02-01T04:15:58.170Z,2.50
2018-02-01T04:18:25.810Z,2.37
2018-02-01T04:20:53.594Z,3.43
2018-02-01T04:23:21.235Z,2.93
2018-02-01T04:25:49.020Z,2.70
2018-02-01T04:28:17.298Z,2.97
2018-02-01T04:30:45.090Z,2.73
2018-02-01T04:33:12.852Z,2.60
2018-02-01T04:35:40.539Z,2.60
2018-02-01T04:38:09.707Z,3.43
2018-02-01T04:40:37.442Z,2.70
2018-02-01T04:43:05.209Z,2.50
2018-02-01T04:45:33.487Z,2.83
2018-02-01T04:48:01.202Z,3.27
2018-02-01T04:50:28.873Z,3.00
2018-02-01T04:52:56.505Z,3.03
2018-02-01T04:55:24.230Z,3.20
2018-02-01T04:57:51.991Z,3.37
2018-02-01T05:00:20.352Z,2.93
2018-02-01T05:02:48.135Z,3.50
2018-02-01T05:05:15.796Z,3.00
2018-02-01T05:07:44.470Z,2.93
2018-02-01T05:10:12.160Z,3.10
2018-02-01T05:12:40.005Z,4.20
2018-02-01T05:15:07.699Z,3.80
2018-02-01T05:17:36.250Z,3.83
2018-02-01T05:20:04.012Z,4.10
2018-02-01T05:22:31.777Z,3.77
2018-02-01T05:25:00.256Z,3.77
2018-02-01T05:27:28.126Z,4.10
2018-02-01T05:29:55.748Z,4.07
2018-02-01T05:32:23.372Z,4.17
2018-02-01T05:34:52.641Z,3.23
2018-02-01T05:37:20.290Z,4.03
2018-02-01T05:39:48.004Z,3.50
2018-02-01T05:42:15.656Z,3.33
2018-02-01T05:44:43.490Z,3.17
2018-02-01T05:47:11.138Z,3.20
2018-02-01T05:49:38.914Z,2.90
2018-02-01T05:52:06.717Z,3.03
2018-02-01T05:54:35.260Z,3.53
2018-02-01T05:57:03.125Z,3.27
2018-02-01T05:59:30.813Z,3.17
2018-02-01T06:01:59.266Z,2.87
2018-02-01T06:04:27.105Z,3.23
2018-02-01T06:06:56.433Z,2.43
2018-02-01T06:09:24.196Z,3.20
2018-02-01T06:11:51.959Z,3.03
2018-02-01T06:14:20.026Z,3.00
2018-02-01T06:16:47.724Z,2.83
2018-02-01T06:19:15.557Z,3.70
2018-02-01T06:21:43.221Z,2.90
2018-02-01T06:24:10.981Z,2.23
2018-02-01T06:26:38.746Z,3.03
2018-02-01T06:29:06.616Z,2.50
2018-02-01T06:31:34.253Z,3.00
2018-02-01T06:34:01.977Z,3.20
2018-02-01T06:36:30.633Z,3.03
2018-02-01T06:38:58.265Z,2.70
2018-02-01T06:41:26.043Z,3.13
2018-02-01T06:43:54.010Z,3.30
2018-02-01T06:46:21.639Z,2.90
2018-02-01T06:48:49.639Z,2.63
2018-02-01T06:51:17.505Z,3.30
2018-02-01T06:53:45.490Z,2.80
2018-02-01T06:56:13.576Z,3.20
2018-02-01T06:58:42.635Z,3.40
2018-02-01T07:01:10.366Z,2.80
2018-02-01T07:03:38.124Z,2.87
2018-02-01T07:06:05.929Z,2.67
2018-02-01T07:08:33.573Z,3.10
2018-02-01T07:11:05.659Z,2.50
2018-02-01T07:13:34.121Z,2.80
2018-02-01T07:16:01.796Z,3.10
2018-02-01T07:18:29.667Z,2.70
2018-02-01T07:20:58.846Z,2.70
2018-02-01T07:23:26.657Z,2.70
2018-02-01T07:25:54.493Z,2.90
2018-02-01T07:28:22.258Z,2.70
2018-02-01T07:30:51.216Z,3.33
2018-02-01T07:33:25.164Z,3.40
2018-02-01T07:35:54.870Z,3.23
2018-02-01T07:38:23.833Z,3.00
2018-02-01T07:40:52.986Z,2.90
2018-02-01T07:43:21.851Z,3.30
2018-02-01T07:48:51.462Z,3.17
2018-02-01T07:51:21.136Z,3.33
2018-02-01T07:53:50.316Z,3.30
2018-02-01T07:56:19.225Z,3.43
2018-02-01T07:58:49.743Z,3.83
2018-02-01T08:01:17.657Z,3.80
2018-02-01T08:03:45.453Z,4.17
2018-02-01T08:06:14.714Z,3.67
2018-02-01T08:08:42.436Z,3.67
2018-02-01T08:11:10.835Z,3.43
2018-02-01T08:13:38.484Z,3.50
2018-02-01T08:16:06.233Z,3.60
2018-02-01T08:18:34.873Z,3.47
2018-02-01T08:21:02.728Z,3.40
2018-02-01T08:23:30.492Z,3.97
2018-02-01T08:25:58.255Z,4.07
2018-02-01T08:28:26.019Z,3.83
2018-02-01T08:30:53.714Z,4.20
2018-02-01T08:33:21.682Z,3.73
2018-02-01T08:35:49.373Z,4.03
2018-02-01T08:38:17.765Z,4.03
2018-02-01T08:40:46.186Z,3.90
2018-02-01T08:43:14.749Z,3.83
2018-02-01T08:45:42.564Z,3.83
2018-02-01T08:48:10.438Z,3.90
2018-02-01T08:50:38.345Z,4.23
2018-02-01T08:53:06.211Z,3.80
2018-02-01T08:55:34.266Z,3.63
2018-02-01T08:58:01.997Z,3.70
2018-02-01T09:00:30.628Z,3.43
2018-02-01T09:02:58.393Z,3.77
2018-02-01T09:05:27.730Z,3.43
2018-02-01T09:07:57.185Z,3.77
2018-02-01T09:10:25.267Z,3.60
2018-02-01T09:12:54.634Z,3.20
2018-02-01T09:15:22.533Z,3.73
2018-02-01T09:17:50.237Z,3.43
2018-02-01T09:20:18.917Z,3.30
2018-02-01T09:22:47.465Z,3.40
2018-02-01T09:25:15.228Z,2.77
2018-02-01T09:27:42.913Z,3.40
2018-02-01T09:30:10.700Z,3.17
2018-02-01T09:32:39.232Z,4.03
2018-02-01T09:35:07.280Z,3.67
2018-02-01T09:37:39.200Z,3.23
2018-02-01T09:40:07.775Z,4.13
2018-02-01T09:42:35.405Z,2.80
2018-02-01T09:45:03.783Z,3.70
2018-02-01T09:47:31.676Z,3.93
2018-02-01T09:49:59.515Z,3.50
2018-02-01T09:52:27.380Z,3.30
2018-02-01T09:54:55.021Z,3.43
2018-02-01T09:57:22.708Z,2.90
2018-02-01T09:59:50.376Z,2.90
2018-02-01T10:02:18.005Z,2.80
2018-02-01T10:04:45.705Z,2.70
2018-02-01T10:07:13.400Z,2.80
2018-02-01T10:09:42.525Z,2.87
2018-02-01T10:12:10.614Z,2.43
2018-02-01T10:14:38.384Z,2.67
2018-02-01T10:17:06.140Z,3.20
2018-02-01T10:19:34.006Z,2.77
2018-02-01T10:22:01.638Z,3.00
2018-02-01T10:24:29.432Z,2.63
2018-02-01T10:26:57.198Z,2.60
2018-02-01T10:29:25.572Z,2.43
2018-02-01T10:31:53.229Z,2.57
2018-02-01T10:34:21.180Z,3.00
2018-02-01T10:36:49.169Z,2.40
2018-02-01T10:39:16.857Z,2.60
2018-02-01T10:41:44.698Z,3.00
2018-02-01T10:44:12.489Z,3.10
2018-02-01T10:46:40.330Z,11.80
2018-02-01T10:49:08.099Z,2.60
2018-02-01T10:51:36.060Z,3.00
2018-02-01T10:54:03.706Z,2.57
2018-02-01T10:56:31.487Z,2.70
2018-02-01T10:58:59.149Z,2.30
2018-02-01T11:01:26.808Z,2.80
2018-02-01T11:03:54.813Z,2.27
2018-02-01T11:06:24.080Z,2.50
2018-02-01T11:08:51.943Z,2.60
2018-02-01T11:11:19.915Z,2.57
2018-02-01T11:13:47.585Z,2.97
2018-02-01T11:16:15.345Z,2.77
2018-02-01T11:18:43.299Z,2.70
2018-02-01T11:21:11.196Z,2.63
2018-02-01T11:23:38.890Z,2.73
2018-02-01T11:26:07.381Z,2.37
2018-02-01T11:28:35.708Z,2.50
2018-02-01T11:31:04.409Z,2.80
2018-02-01T11:33:32.131Z,2.47
2018-02-01T11:35:59.898Z,2.80
2018-02-01T11:38:27.584Z,2.47
2018-02-01T11:40:55.352Z,2.27
2018-02-01T11:43:23.648Z,2.10
2018-02-01T11:45:52.100Z,2.33
2018-02-01T11:48:20.492Z,2.30
2018-02-01T11:50:48.219Z,2.30
2018-02-01T11:53:15.908Z,2.10
2018-02-01T11:55:44.928Z,2.50
2018-02-01T11:58:13.758Z,2.47
2018-02-01T12:00:43.058Z,2.67
2018-02-01T12:03:10.859Z,2.87
2018-02-01T12:05:38.916Z,2.50
2018-02-01T12:08:06.541Z,2.30
2018-02-01T12:10:34.240Z,2.13
2018-02-01T12:13:04.547Z,2.00
2018-02-01T12:15:32.410Z,2.47
2018-02-01T12:18:00.680Z,3.17
2018-02-01T12:20:28.448Z,2.80
2018-02-01T12:22:57.434Z,2.33
2018-02-01T12:25:25.143Z,2.47
2018-02-01T12:27:53.573Z,2.50
2018-02-01T12:30:21.656Z,2.33
2018-02-01T12:32:49.700Z,3.07
2018-02-01T12:35:17.678Z,2.80
2018-02-01T12:37:45.693Z,2.63
2018-02-01T12:40:14.091Z,2.57
2018-02-01T12:42:42.493Z,2.53
2018-02-01T12:45:10.579Z,2.60
2018-02-01T12:47:38.350Z,3.30
2018-02-01T12:50:06.315Z,3.10
2018-02-01T12:52:35.814Z,2.20
2018-02-01T12:55:03.680Z,2.97
2018-02-01T12:57:31.854Z,2.33
2018-02-01T13:00:00.539Z,2.10
2018-02-01T13:02:28.406Z,2.33
2018-02-01T13:04:56.085Z,2.43
2018-02-01T13:07:23.932Z,2.10
2018-02-01T13:09:52.385Z,2.20
2018-02-01T13:12:20.003Z,2.43
2018-02-01T13:14:47.632Z,2.30
2018-02-01T13:17:15.301Z,2.13
2018-02-01T13:19:43.055Z,2.83
2018-02-01T13:22:10.822Z,2.40
2018-02-01T13:24:38.582Z,2.00
2018-02-01T13:27:06.224Z,2.00
2018-02-01T13:29:34.519Z,2.43
2018-02-01T13:32:02.631Z,2.73
2018-02-01T13:34:31.581Z,2.10
2018-02-01T13:36:59.347Z,2.23
2018-02-01T13:39:27.340Z,2.50
2018-02-01T13:41:55.121Z,2.37
2018-02-01T13:44:23.578Z,2.33
2018-02-01T13:46:51.429Z,2.30
2018-02-01T13:49:19.428Z,2.73
2018-02-01T13:51:47.974Z,2.57
2018-02-01T13:54:15.674Z,3.00
2018-02-01T13:56:43.907Z,2.23
2018-02-01T13:59:11.672Z,2.10
2018-02-01T14:01:39.571Z,1.97
2018-02-01T14:04:07.925Z,2.93
2018-02-01T14:06:35.608Z,2.50
2018-02-01T14:09:03.446Z,2.50
2018-02-01T14:11:31.427Z,2.57
2018-02-01T14:14:00.915Z,3.07
2018-02-01T14:16:29.278Z,2.60
2018-02-01T14:18:56.955Z,3.00
2018-02-01T14:21:24.662Z,2.70
2018-02-01T14:23:53.566Z,2.90
2018-02-01T14:26:21.293Z,3.00
2018-02-01T14:28:49.350Z,2.27
2018-02-01T14:31:16.972Z,3.20
2018-02-01T14:33:45.590Z,2.70
2018-02-01T14:36:13.229Z,2.20
2018-02-01T14:38:40.946Z,2.10
2018-02-01T14:41:09.800Z,2.43
2018-02-01T14:43:37.685Z,2.57
2018-02-01T14:46:06.214Z,2.70
2018-02-01T14:48:33.868Z,2.63
2018-02-01T14:51:01.896Z,2.77
2018-02-01T14:53:29.580Z,2.90
2018-02-01T14:55:57.985Z,3.23
2018-02-01T14:58:26.016Z,3.13
2018-02-01T15:00:54.582Z,2.67
2018-02-01T15:03:22.323Z,2.97
2018-02-01T15:05:50.093Z,3.20
2018-02-01T15:08:18.874Z,3.20
2018-02-01T15:10:46.978Z,3.37
2018-02-01T15:13:15.526Z,3.20
2018-02-01T15:15:43.598Z,3.33
2018-02-01T15:18:11.628Z,3.77
2018-02-01T15:20:40.278Z,3.63
2018-02-01T15:23:08.016Z,3.60
2018-02-01T15:25:35.885Z,3.63
2018-02-01T15:28:04.194Z,4.53
2018-02-01T15:30:32.890Z,4.40
2018-02-01T15:33:01.342Z,4.53
2018-02-01T15:35:28.977Z,3.97
2018-02-01T15:37:56.611Z,4.60
2018-02-01T15:40:24.281Z,5.10
2018-02-01T15:42:52.070Z,5.07
2018-02-01T15:45:19.830Z,5.27
2018-02-01T15:47:47.798Z,4.83
2018-02-01T15:50:16.001Z,4.67
2018-02-01T15:52:43.963Z,4.67
2018-02-01T15:55:11.967Z,5.03
2018-02-01T15:57:40.535Z,4.90
2018-02-01T16:00:09.174Z,4.80
2018-02-01T16:02:36.938Z,5.17
2018-02-01T16:05:04.908Z,5.43
2018-02-01T16:07:32.772Z,5.73
2018-02-01T16:10:00.535Z,5.83
2018-02-01T16:12:29.277Z,5.57
2018-02-01T16:14:57.689Z,5.27
2018-02-01T16:17:25.670Z,4.80
2018-02-01T16:19:53.740Z,5.57
2018-02-01T16:22:21.809Z,5.37
2018-02-01T16:24:49.805Z,6.30
2018-02-01T16:27:18.303Z,5.13
2018-02-01T16:29:46.800Z,5.00
2018-02-01T16:32:15.728Z,4.63
2018-02-01T16:34:43.417Z,4.83
2018-02-01T16:37:11.273Z,4.53
2018-02-01T16:39:39.362Z,5.17
2018-02-01T16:42:07.294Z,4.73
2018-02-01T16:44:35.010Z,4.80
2018-02-01T16:47:02.830Z,4.67
2018-02-01T16:49:31.507Z,5.40
2018-02-01T16:51:59.291Z,4.77
2018-02-01T16:54:27.138Z,5.50
2018-02-01T16:56:55.102Z,5.27
2018-02-01T16:59:22.886Z,6.00
2018-02-01T17:01:52.247Z,5.97
2018-02-01T17:04:20.014Z,5.23
2018-02-01T17:06:47.691Z,5.13
2018-02-01T17:09:15.693Z,5.07
2018-02-01T17:11:44.364Z,5.23
2018-02-01T17:14:12.077Z,5.17
2018-02-01T17:16:39.874Z,5.10
2018-02-01T17:19:07.565Z,4.97
2018-02-01T17:21:35.295Z,5.20
2018-02-01T17:24:03.092Z,7.37
2018-02-01T17:26:31.640Z,6.37
2018-02-01T17:28:59.302Z,4.77
2018-02-01T17:31:27.095Z,4.77
2018-02-01T17:33:54.732Z,5.23
2018-02-01T17:36:22.567Z,5.27
2018-02-01T17:38:50.370Z,4.90
2018-02-01T17:41:18.053Z,5.23
2018-02-01T17:43:46.604Z,4.83
2018-02-01T17:46:16.107Z,4.90
2018-02-01T17:48:43.871Z,5.33
2018-02-01T17:51:11.738Z,4.40
2018-02-01T17:53:39.442Z,5.27
2018-02-01T17:56:07.909Z,5.80
2018-02-01T17:58:35.573Z,5.30
2018-02-01T18:01:04.895Z,5.13
2018-02-01T18:03:33.124Z,5.17
2018-02-01T18:06:00.789Z,4.83
2018-02-01T18:08:28.669Z,5.13
2018-02-01T18:10:57.146Z,5.07
2018-02-01T18:13:26.725Z,4.93
2018-02-01T18:15:54.432Z,4.93
2018-02-01T18:18:23.170Z,5.50
2018-02-01T18:20:51.041Z,4.90
2018-02-01T18:23:19.510Z,4.90
2018-02-01T18:25:47.279Z,4.67
2018-02-01T18:28:15.145Z,5.07
2018-02-01T18:30:43.259Z,4.73
2018-02-01T18:33:11.700Z,4.37
2018-02-01T18:35:39.458Z,4.20
2018-02-01T18:38:07.152Z,4.37
2018-02-01T18:40:35.565Z,3.97
2018-02-01T18:43:03.833Z,3.90
2018-02-01T18:45:31.473Z,4.30
2018-02-01T18:47:59.299Z,3.93
2018-02-01T18:50:26.980Z,3.90
2018-02-01T18:52:54.993Z,4.03
2018-02-01T18:55:22.679Z,4.60
2018-02-01T18:57:50.318Z,4.10
2018-02-01T19:00:18.013Z,5.10
2018-02-01T19:02:45.776Z,4.80
2018-02-01T19:05:13.645Z,4.70
2018-02-01T19:07:41.416Z,4.90
2018-02-01T19:10:09.048Z,6.53
2018-02-01T19:12:37.546Z,4.37
2018-02-01T19:15:05.310Z,4.33
2018-02-01T19:17:33.085Z,4.07
2018-02-01T19:20:02.372Z,3.57
2018-02-01T19:22:30.257Z,4.10
2018-02-01T19:24:58.022Z,4.60
2018-02-01T19:27:25.703Z,4.07
2018-02-01T19:29:53.804Z,4.37
2018-02-01T19:32:22.221Z,5.00
2018-02-01T19:34:50.722Z,4.83
2018-02-01T19:37:18.485Z,5.03
2018-02-01T19:39:47.293Z,4.63
2018-02-01T19:42:16.816Z,4.00
2018-02-01T19:44:45.396Z,4.03
2018-02-01T19:47:13.065Z,3.90
2018-02-01T19:49:40.754Z,3.57
2018-02-01T19:52:08.828Z,3.90
2018-02-01T19:54:36.699Z,3.63
2018-02-01T19:57:04.384Z,4.53
2018-02-01T19:59:34.504Z,3.40
2018-02-01T20:02:04.153Z,4.57
2018-02-01T20:04:32.631Z,4.07
2018-02-01T20:07:11.784Z,4.23
2018-02-01T20:09:40.244Z,3.83
2018-02-01T20:12:10.348Z,4.73
2018-02-01T20:14:42.897Z,4.00
2018-02-01T20:17:13.274Z,4.13
2018-02-01T20:19:42.780Z,3.40
2018-02-01T20:22:17.211Z,5.43
2018-02-01T20:24:47.603Z,3.87
2018-02-01T20:27:17.682Z,3.33
2018-02-01T20:29:46.397Z,3.60
2018-02-01T20:32:14.057Z,4.37
2018-02-01T20:34:41.705Z,4.10
2018-02-01T20:37:10.195Z,4.23
2018-02-01T20:39:38.007Z,3.63
2018-02-01T20:42:05.717Z,4.93
2018-02-01T20:44:37.782Z,3.53
2018-02-01T20:47:06.268Z,4.00
2018-02-01T20:49:33.937Z,4.03
2018-02-01T20:52:08.605Z,3.87
2018-02-01T20:54:41.968Z,3.70
2018-02-01T20:57:17.745Z,3.73
2018-02-01T20:59:46.286Z,3.83
2018-02-01T21:02:13.997Z,4.50
2018-02-01T21:08:10.322Z,4.47
2018-02-01T21:14:02.441Z,4.30
2018-02-01T21:16:33.468Z,6.87
2018-02-01T21:25:29.880Z,4.30
2018-02-01T21:28:02.813Z,4.63
2018-02-01T21:30:35.221Z,4.17
2018-02-01T21:33:24.071Z,4.80
2018-02-01T21:36:19.570Z,4.17
2018-02-01T21:38:53.030Z,3.40
2018-02-01T21:41:32.594Z,4.60
2018-02-01T21:44:01.250Z,4.30
2018-02-01T21:46:30.793Z,4.37
2018-02-01T21:51:42.719Z,3.67
2018-02-01T21:54:13.438Z,3.40
2018-02-01T21:56:46.663Z,3.80
2018-02-01T21:59:15.794Z,3.77
2018-02-01T22:01:45.703Z,3.50
2018-02-01T22:04:14.487Z,3.10
2018-02-01T22:06:44.735Z,3.40
2018-02-01T22:09:15.955Z,3.33
2018-02-01T22:11:47.597Z,3.80
2018-02-01T22:14:17.396Z,3.43
2018-02-01T22:16:49.142Z,3.53
2018-02-01T22:19:19.493Z,3.13
2018-02-01T22:21:51.410Z,3.70
2018-02-01T22:24:21.881Z,3.37
2018-02-01T22:26:52.305Z,3.33
2018-02-01T22:29:22.487Z,3.23
2018-02-01T22:31:53.918Z,3.57
2018-02-01T22:34:24.822Z,3.60
2018-02-01T22:36:54.404Z,3.33
2018-02-01T22:39:24.344Z,3.40
2018-02-01T22:41:55.188Z,2.93
2018-02-01T22:44:24.279Z,3.40
2018-02-01T22:46:55.278Z,3.10
2018-02-01T22:49:25.433Z,3.33
2018-02-01T22:51:54.937Z,3.13
2018-02-01T22:54:34.484Z,3.30
2018-02-01T22:57:04.935Z,3.20
2018-02-01T22:59:57.781Z,3.60
2018-02-01T23:02:28.313Z,3.07
2018-02-01T23:04:58.924Z,3.50
2018-02-01T23:07:33.548Z,3.47
2018-02-01T23:10:09.782Z,3.20
2018-02-01T23:12:39.640Z,4.00
2018-02-01T23:15:09.833Z,3.40
2018-02-01T23:17:46.701Z,3.30
2018-02-01T23:20:16.392Z,3.10
2018-02-01T23:22:53.163Z,3.50
2018-02-01T23:25:22.783Z,3.27
2018-02-01T23:27:56.272Z,3.07
2018-02-01T23:30:28.152Z,3.37
2018-02-01T23:32:59.475Z,3.53
2018-02-01T23:35:30.176Z,3.30
2018-02-01T23:38:02.642Z,3.07
2018-02-01T23:40:36.197Z,3.33
2018-02-01T23:43:09.165Z,2.73
2018-02-01T23:45:38.482Z,3.10
2018-02-01T23:48:07.074Z,3.00
2018-02-01T23:50:34.734Z,3.10
2018-02-01T23:53:02.648Z,2.93
2018-02-01T23:55:31.114Z,2.97
2018-02-01T23:57:58.952Z,3.10
